sensor_id;sensor_type;location;lat;lon;timestamp;P1;durP1;ratioP1;P2;durP2;ratioP2
5967;SDS011;3010;51.028;4.170;2022-09-27T00:01:00;15.05;;;4.65;;
5967;SDS011;3010;51.028;4.170;2022-09-27T00:03:28;6.60;;;3.30;;
5967;SDS011;3010;51.028;4.170;2022-09-27T00:06:05;10.03;;;3.70;;
5967;SDS011;3010;51.028;4.170;2022-09-27T00:08:36;13.27;;;3.53;;
5967;SDS011;3010;51.028;4.170;2022-09-27T00:11:04;9.67;;;3.30;;
5967;SDS011;3010;51.028;4.170;2022-09-27T00:13:30;8.60;;;3.17;;
5967;SDS011;3010;51.028;4.170;2022-09-27T00:15:57;8.30;;;3.90;;
5967;SDS011;3010;51.028;4.170;2022-09-27T00:18:26;9.30;;;3.40;;
5967;SDS011;3010;51.028;4.170;2022-09-27T00:20:52;8.17;;;2.70;;
5967;SDS011;3010;51.028;4.170;2022-09-27T00:23:22;7.77;;;2.87;;
5967;SDS011;3010;51.028;4.170;2022-09-27T00:25:58;9.47;;;3.03;;
5967;SDS011;3010;51.028;4.170;2022-09-27T00:28:21;6.90;;;2.43;;
5967;SDS011;3010;51.028;4.170;2022-09-27T00:30:47;8.30;;;3.10;;
5967;SDS011;3010;51.028;4.170;2022-09-27T00:33:14;9.93;;;2.57;;
5967;SDS011;3010;51.028;4.170;2022-09-27T00:35:41;8.15;;;3.35;;
5967;SDS011;3010;51.028;4.170;2022-09-27T00:38:07;6.67;;;2.30;;
5967;SDS011;3010;51.028;4.170;2022-09-27T00:40:34;9.57;;;3.00;;
5967;SDS011;3010;51.028;4.170;2022-09-27T00:43:00;8.50;;;2.77;;
5967;SDS011;3010;51.028;4.170;2022-09-27T00:45:27;7.80;;;2.97;;
5967;SDS011;3010;51.028;4.170;2022-09-27T00:47:55;4.93;;;2.30;;
5967;SDS011;3010;51.028;4.170;2022-09-27T00:50:21;6.97;;;2.40;;
5967;SDS011;3010;51.028;4.170;2022-09-27T00:52:49;5.37;;;2.57;;
5967;SDS011;3010;51.028;4.170;2022-09-27T00:55:19;2.70;;;2.27;;
5967;SDS011;3010;51.028;4.170;2022-09-27T00:57:43;7.33;;;2.63;;
5967;SDS011;3010;51.028;4.170;2022-09-27T01:00:10;7.70;;;2.60;;
5967;SDS011;3010;51.028;4.170;2022-09-27T01:02:36;9.47;;;2.60;;
5967;SDS011;3010;51.028;4.170;2022-09-27T01:05:03;7.27;;;3.10;;
5967;SDS011;3010;51.028;4.170;2022-09-27T01:07:29;5.97;;;3.00;;
5967;SDS011;3010;51.028;4.170;2022-09-27T01:09:56;5.60;;;2.90;;
5967;SDS011;3010;51.028;4.170;2022-09-27T01:15:19;7.10;;;3.07;;
5967;SDS011;3010;51.028;4.170;2022-09-27T01:18:04;3.77;;;2.40;;
5967;SDS011;3010;51.028;4.170;2022-09-27T01:26:28;10.33;;;3.40;;
5967;SDS011;3010;51.028;4.170;2022-09-27T01:29:06;9.10;;;4.65;;
5967;SDS011;3010;51.028;4.170;2022-09-27T01:31:39;6.20;;;3.43;;
5967;SDS011;3010;51.028;4.170;2022-09-27T01:34:20;6.20;;;3.60;;
5967;SDS011;3010;51.028;4.170;2022-09-27T01:39:59;7.67;;;2.50;;
5967;SDS011;3010;51.028;4.170;2022-09-27T01:42:31;11.00;;;3.30;;
5967;SDS011;3010;51.028;4.170;2022-09-27T01:45:03;4.80;;;2.83;;
5967;SDS011;3010;51.028;4.170;2022-09-27T01:47:28;8.33;;;3.03;;
5967;SDS011;3010;51.028;4.170;2022-09-27T01:50:03;6.77;;;3.07;;
5967;SDS011;3010;51.028;4.170;2022-09-27T01:52:33;6.80;;;3.40;;
5967;SDS011;3010;51.028;4.170;2022-09-27T01:54:58;9.67;;;3.57;;
5967;SDS011;3010;51.028;4.170;2022-09-27T01:57:24;12.43;;;3.70;;
5967;SDS011;3010;51.028;4.170;2022-09-27T01:59:58;5.93;;;3.30;;
5967;SDS011;3010;51.028;4.170;2022-09-27T02:02:23;8.53;;;3.40;;
5967;SDS011;3010;51.028;4.170;2022-09-27T02:04:49;6.65;;;3.90;;
5967;SDS011;3010;51.028;4.170;2022-09-27T02:07:17;8.40;;;3.33;;
5967;SDS011;3010;51.028;4.170;2022-09-27T02:09:49;5.87;;;2.70;;
5967;SDS011;3010;51.028;4.170;2022-09-27T02:12:30;5.93;;;2.90;;
5967;SDS011;3010;51.028;4.170;2022-09-27T02:14:45;5.20;;;2.73;;
5967;SDS011;3010;51.028;4.170;2022-09-27T02:19:53;4.30;;;2.23;;
5967;SDS011;3010;51.028;4.170;2022-09-27T02:22:34;5.10;;;2.40;;
5967;SDS011;3010;51.028;4.170;2022-09-27T02:30:23;5.57;;;2.70;;
5967;SDS011;3010;51.028;4.170;2022-09-27T02:32:49;3.23;;;2.93;;
5967;SDS011;3010;51.028;4.170;2022-09-27T02:35:21;7.43;;;4.30;;
5967;SDS011;3010;51.028;4.170;2022-09-27T02:37:48;9.33;;;4.37;;
5967;SDS011;3010;51.028;4.170;2022-09-27T02:40:14;4.87;;;4.30;;
5967;SDS011;3010;51.028;4.170;2022-09-27T02:42:41;10.55;;;5.53;;
5967;SDS011;3010;51.028;4.170;2022-09-27T02:45:07;6.20;;;4.43;;
5967;SDS011;3010;51.028;4.170;2022-09-27T02:55:33;9.30;;;4.43;;
5967;SDS011;3010;51.028;4.170;2022-09-27T03:00:48;5.93;;;4.90;;
5967;SDS011;3010;51.028;4.170;2022-09-27T03:03:17;5.03;;;4.40;;
5967;SDS011;3010;51.028;4.170;2022-09-27T03:05:44;5.03;;;4.20;;
5967;SDS011;3010;51.028;4.170;2022-09-27T03:08:12;10.40;;;4.20;;
5967;SDS011;3010;51.028;4.170;2022-09-27T03:10:39;10.80;;;4.00;;
5967;SDS011;3010;51.028;4.170;2022-09-27T03:13:05;10.03;;;3.60;;
5967;SDS011;3010;51.028;4.170;2022-09-27T03:15:32;6.27;;;3.60;;
5967;SDS011;3010;51.028;4.170;2022-09-27T03:17:58;6.87;;;3.90;;
5967;SDS011;3010;51.028;4.170;2022-09-27T03:20:25;6.57;;;5.20;;
5967;SDS011;3010;51.028;4.170;2022-09-27T03:22:51;5.93;;;4.20;;
5967;SDS011;3010;51.028;4.170;2022-09-27T03:25:18;10.38;;;5.20;;
5967;SDS011;3010;51.028;4.170;2022-09-27T03:27:45;6.33;;;4.20;;
5967;SDS011;3010;51.028;4.170;2022-09-27T03:30:11;17.08;;;7.82;;
5967;SDS011;3010;51.028;4.170;2022-09-27T03:32:41;10.93;;;6.20;;
5967;SDS011;3010;51.028;4.170;2022-09-27T03:35:07;17.43;;;6.13;;
5967;SDS011;3010;51.028;4.170;2022-09-27T03:37:34;15.57;;;6.00;;
5967;SDS011;3010;51.028;4.170;2022-09-27T03:40:00;13.17;;;6.33;;
5967;SDS011;3010;51.028;4.170;2022-09-27T03:42:27;15.93;;;6.47;;
5967;SDS011;3010;51.028;4.170;2022-09-27T03:44:54;17.27;;;6.17;;
5967;SDS011;3010;51.028;4.170;2022-09-27T03:47:20;17.83;;;7.73;;
5967;SDS011;3010;51.028;4.170;2022-09-27T03:49:47;24.15;;;9.20;;
5967;SDS011;3010;51.028;4.170;2022-09-27T03:52:13;21.83;;;8.07;;
5967;SDS011;3010;51.028;4.170;2022-09-27T03:54:40;14.30;;;7.13;;
5967;SDS011;3010;51.028;4.170;2022-09-27T03:57:06;17.50;;;7.10;;
5967;SDS011;3010;51.028;4.170;2022-09-27T03:59:33;18.97;;;6.40;;
5967;SDS011;3010;51.028;4.170;2022-09-27T04:02:00;18.13;;;6.93;;
5967;SDS011;3010;51.028;4.170;2022-09-27T04:04:26;12.17;;;6.23;;
5967;SDS011;3010;51.028;4.170;2022-09-27T04:06:53;12.80;;;5.97;;
5967;SDS011;3010;51.028;4.170;2022-09-27T04:09:22;13.47;;;5.77;;
5967;SDS011;3010;51.028;4.170;2022-09-27T04:11:49;14.03;;;5.97;;
5967;SDS011;3010;51.028;4.170;2022-09-27T04:14:15;12.23;;;5.53;;
5967;SDS011;3010;51.028;4.170;2022-09-27T04:16:42;6.77;;;4.77;;
5967;SDS011;3010;51.028;4.170;2022-09-27T04:19:08;11.00;;;5.83;;
5967;SDS011;3010;51.028;4.170;2022-09-27T04:21:35;8.37;;;4.10;;
5967;SDS011;3010;51.028;4.170;2022-09-27T04:24:01;12.25;;;6.50;;
5967;SDS011;3010;51.028;4.170;2022-09-27T04:26:28;8.60;;;4.37;;
5967;SDS011;3010;51.028;4.170;2022-09-27T04:28:55;15.57;;;6.70;;
5967;SDS011;3010;51.028;4.170;2022-09-27T04:31:21;9.10;;;5.00;;
5967;SDS011;3010;51.028;4.170;2022-09-27T04:33:48;6.70;;;4.57;;
5967;SDS011;3010;51.028;4.170;2022-09-27T04:36:16;10.48;;;6.20;;
5967;SDS011;3010;51.028;4.170;2022-09-27T04:38:53;10.03;;;5.43;;
5967;SDS011;3010;51.028;4.170;2022-09-27T04:41:19;11.37;;;6.07;;
5967;SDS011;3010;51.028;4.170;2022-09-27T04:43:46;16.33;;;7.87;;
5967;SDS011;3010;51.028;4.170;2022-09-27T04:46:12;23.90;;;8.73;;
5967;SDS011;3010;51.028;4.170;2022-09-27T04:48:39;21.87;;;9.23;;
5967;SDS011;3010;51.028;4.170;2022-09-27T04:51:06;21.07;;;8.83;;
5967;SDS011;3010;51.028;4.170;2022-09-27T04:53:32;27.73;;;13.38;;
5967;SDS011;3010;51.028;4.170;2022-09-27T04:55:59;18.77;;;10.33;;
5967;SDS011;3010;51.028;4.170;2022-09-27T04:58:25;24.93;;;11.50;;
5967;SDS011;3010;51.028;4.170;2022-09-27T05:00:52;14.73;;;10.30;;
5967;SDS011;3010;51.028;4.170;2022-09-27T05:03:18;23.37;;;11.90;;
5967;SDS011;3010;51.028;4.170;2022-09-27T05:05:45;23.80;;;12.13;;
5967;SDS011;3010;51.028;4.170;2022-09-27T05:08:12;24.30;;;15.80;;
5967;SDS011;3010;51.028;4.170;2022-09-27T05:10:38;30.88;;;17.23;;
5967;SDS011;3010;51.028;4.170;2022-09-27T05:13:05;36.30;;;17.67;;
5967;SDS011;3010;51.028;4.170;2022-09-27T05:15:31;23.87;;;12.80;;
5967;SDS011;3010;51.028;4.170;2022-09-27T05:17:58;20.00;;;11.63;;
5967;SDS011;3010;51.028;4.170;2022-09-27T05:20:25;16.17;;;9.63;;
5967;SDS011;3010;51.028;4.170;2022-09-27T05:22:51;11.17;;;9.17;;
5967;SDS011;3010;51.028;4.170;2022-09-27T05:25:18;19.13;;;10.00;;
5967;SDS011;3010;51.028;4.170;2022-09-27T05:27:44;20.60;;;10.47;;
5967;SDS011;3010;51.028;4.170;2022-09-27T05:30:11;15.47;;;9.13;;
5967;SDS011;3010;51.028;4.170;2022-09-27T05:32:47;14.37;;;9.33;;
5967;SDS011;3010;51.028;4.170;2022-09-27T05:35:10;17.87;;;9.27;;
5967;SDS011;3010;51.028;4.170;2022-09-27T05:37:36;15.70;;;9.33;;
5967;SDS011;3010;51.028;4.170;2022-09-27T05:40:03;18.83;;;9.33;;
5967;SDS011;3010;51.028;4.170;2022-09-27T05:42:29;21.95;;;11.93;;
5967;SDS011;3010;51.028;4.170;2022-09-27T05:44:56;18.97;;;9.93;;
5967;SDS011;3010;51.028;4.170;2022-09-27T05:47:23;14.17;;;9.67;;
5967;SDS011;3010;51.028;4.170;2022-09-27T05:49:49;14.60;;;9.03;;
5967;SDS011;3010;51.028;4.170;2022-09-27T05:52:16;15.00;;;8.40;;
5967;SDS011;3010;51.028;4.170;2022-09-27T05:54:42;15.17;;;8.33;;
5967;SDS011;3010;51.028;4.170;2022-09-27T05:57:09;13.70;;;8.23;;
5967;SDS011;3010;51.028;4.170;2022-09-27T05:59:36;13.50;;;8.43;;
5967;SDS011;3010;51.028;4.170;2022-09-27T06:02:02;12.87;;;8.87;;
5967;SDS011;3010;51.028;4.170;2022-09-27T06:04:29;11.13;;;8.67;;
5967;SDS011;3010;51.028;4.170;2022-09-27T06:06:55;16.03;;;8.60;;
5967;SDS011;3010;51.028;4.170;2022-09-27T06:09:22;13.17;;;9.53;;
5967;SDS011;3010;51.028;4.170;2022-09-27T06:11:49;18.77;;;12.93;;
5967;SDS011;3010;51.028;4.170;2022-09-27T06:14:15;14.73;;;9.17;;
5967;SDS011;3010;51.028;4.170;2022-09-27T06:16:42;21.50;;;9.03;;
5967;SDS011;3010;51.028;4.170;2022-09-27T06:19:08;13.13;;;8.53;;
5967;SDS011;3010;51.028;4.170;2022-09-27T06:21:35;17.93;;;9.27;;
5967;SDS011;3010;51.028;4.170;2022-09-27T06:24:02;13.23;;;8.97;;
5967;SDS011;3010;51.028;4.170;2022-09-27T06:26:28;17.80;;;8.70;;
5967;SDS011;3010;51.028;4.170;2022-09-27T06:28:55;15.63;;;8.60;;
5967;SDS011;3010;51.028;4.170;2022-09-27T06:31:21;12.57;;;8.20;;
5967;SDS011;3010;51.028;4.170;2022-09-27T06:33:48;14.30;;;8.70;;
5967;SDS011;3010;51.028;4.170;2022-09-27T06:36:14;17.37;;;12.02;;
5967;SDS011;3010;51.028;4.170;2022-09-27T06:38:41;16.20;;;10.20;;
5967;SDS011;3010;51.028;4.170;2022-09-27T06:41:08;15.95;;;11.48;;
5967;SDS011;3010;51.028;4.170;2022-09-27T06:43:34;13.33;;;9.70;;
5967;SDS011;3010;51.028;4.170;2022-09-27T06:46:01;10.60;;;8.67;;
5967;SDS011;3010;51.028;4.170;2022-09-27T06:48:30;17.50;;;9.07;;
5967;SDS011;3010;51.028;4.170;2022-09-27T06:50:57;16.27;;;10.13;;
5967;SDS011;3010;51.028;4.170;2022-09-27T06:53:23;18.50;;;10.70;;
5967;SDS011;3010;51.028;4.170;2022-09-27T06:55:50;19.80;;;9.07;;
5967;SDS011;3010;51.028;4.170;2022-09-27T06:58:16;19.37;;;10.30;;
5967;SDS011;3010;51.028;4.170;2022-09-27T07:01:01;16.20;;;9.57;;
5967;SDS011;3010;51.028;4.170;2022-09-27T07:03:28;14.67;;;10.17;;
5967;SDS011;3010;51.028;4.170;2022-09-27T07:06:00;15.07;;;12.98;;
5967;SDS011;3010;51.028;4.170;2022-09-27T07:08:27;20.83;;;12.00;;
5967;SDS011;3010;51.028;4.170;2022-09-27T07:10:54;19.67;;;10.43;;
5967;SDS011;3010;51.028;4.170;2022-09-27T07:13:21;15.50;;;10.67;;
5967;SDS011;3010;51.028;4.170;2022-09-27T07:15:47;17.57;;;10.73;;
5967;SDS011;3010;51.028;4.170;2022-09-27T07:18:14;26.03;;;11.00;;
5967;SDS011;3010;51.028;4.170;2022-09-27T07:20:41;20.17;;;10.93;;
5967;SDS011;3010;51.028;4.170;2022-09-27T07:23:07;21.23;;;10.83;;
5967;SDS011;3010;51.028;4.170;2022-09-27T07:25:34;20.15;;;13.52;;
5967;SDS011;3010;51.028;4.170;2022-09-27T07:28:01;15.70;;;11.13;;
5967;SDS011;3010;51.028;4.170;2022-09-27T07:30:27;17.47;;;10.73;;
5967;SDS011;3010;51.028;4.170;2022-09-27T07:32:57;22.17;;;11.90;;
5967;SDS011;3010;51.028;4.170;2022-09-27T07:35:23;19.50;;;11.43;;
5967;SDS011;3010;51.028;4.170;2022-09-27T07:37:50;24.53;;;12.23;;
5967;SDS011;3010;51.028;4.170;2022-09-27T07:40:16;15.30;;;10.77;;
5967;SDS011;3010;51.028;4.170;2022-09-27T07:42:43;20.10;;;11.27;;
5967;SDS011;3010;51.028;4.170;2022-09-27T07:45:09;21.23;;;13.90;;
5967;SDS011;3010;51.028;4.170;2022-09-27T07:47:39;18.50;;;11.27;;
5967;SDS011;3010;51.028;4.170;2022-09-27T07:50:06;13.53;;;9.33;;
5967;SDS011;3010;51.028;4.170;2022-09-27T07:52:39;18.47;;;9.73;;
5967;SDS011;3010;51.028;4.170;2022-09-27T07:55:04;16.30;;;9.00;;
5967;SDS011;3010;51.028;4.170;2022-09-27T07:57:31;14.13;;;9.47;;
5967;SDS011;3010;51.028;4.170;2022-09-27T07:59:58;15.97;;;8.87;;
5967;SDS011;3010;51.028;4.170;2022-09-27T08:02:24;13.83;;;8.50;;
5967;SDS011;3010;51.028;4.170;2022-09-27T08:04:51;14.00;;;8.30;;
5967;SDS011;3010;51.028;4.170;2022-09-27T08:07:17;10.53;;;7.90;;
5967;SDS011;3010;51.028;4.170;2022-09-27T08:09:44;10.33;;;7.03;;
5967;SDS011;3010;51.028;4.170;2022-09-27T08:12:11;11.67;;;7.27;;
5967;SDS011;3010;51.028;4.170;2022-09-27T08:14:38;12.75;;;10.20;;
5967;SDS011;3010;51.028;4.170;2022-09-27T08:17:05;11.40;;;8.07;;
5967;SDS011;3010;51.028;4.170;2022-09-27T08:19:32;12.35;;;8.93;;
5967;SDS011;3010;51.028;4.170;2022-09-27T08:22:00;9.37;;;7.20;;
5967;SDS011;3010;51.028;4.170;2022-09-27T08:24:26;10.53;;;7.10;;
5967;SDS011;3010;51.028;4.170;2022-09-27T08:26:53;7.83;;;6.97;;
5967;SDS011;3010;51.028;4.170;2022-09-27T08:29:20;8.47;;;6.83;;
5967;SDS011;3010;51.028;4.170;2022-09-27T08:31:46;8.43;;;7.37;;
5967;SDS011;3010;51.028;4.170;2022-09-27T08:34:13;8.10;;;7.30;;
5967;SDS011;3010;51.028;4.170;2022-09-27T08:36:41;11.77;;;6.83;;
5967;SDS011;3010;51.028;4.170;2022-09-27T08:39:07;11.73;;;6.63;;
5967;SDS011;3010;51.028;4.170;2022-09-27T08:41:35;13.37;;;7.20;;
5967;SDS011;3010;51.028;4.170;2022-09-27T08:47:01;11.17;;;5.47;;
5967;SDS011;3010;51.028;4.170;2022-09-27T08:52:18;5.97;;;5.47;;
5967;SDS011;3010;51.028;4.170;2022-09-27T08:54:49;8.53;;;5.37;;
5967;SDS011;3010;51.028;4.170;2022-09-27T08:57:16;6.23;;;5.10;;
5967;SDS011;3010;51.028;4.170;2022-09-27T08:59:44;8.30;;;6.10;;
5967;SDS011;3010;51.028;4.170;2022-09-27T09:02:15;9.40;;;5.03;;
5967;SDS011;3010;51.028;4.170;2022-09-27T09:04:47;7.32;;;6.18;;
5967;SDS011;3010;51.028;4.170;2022-09-27T09:12:23;6.63;;;5.00;;
5967;SDS011;3010;51.028;4.170;2022-09-27T09:15:06;9.17;;;5.57;;
5967;SDS011;3010;51.028;4.170;2022-09-27T09:20:11;6.50;;;5.57;;
5967;SDS011;3010;51.028;4.170;2022-09-27T09:25:42;10.43;;;5.23;;
5967;SDS011;3010;51.028;4.170;2022-09-27T09:28:32;7.10;;;5.70;;
5967;SDS011;3010;51.028;4.170;2022-09-27T09:31:01;9.57;;;5.83;;
5967;SDS011;3010;51.028;4.170;2022-09-27T09:33:37;8.67;;;5.30;;
5967;SDS011;3010;51.028;4.170;2022-09-27T09:36:10;10.40;;;5.80;;
5967;SDS011;3010;51.028;4.170;2022-09-27T09:38:44;12.33;;;6.13;;
5967;SDS011;3010;51.028;4.170;2022-09-27T09:41:14;11.23;;;5.83;;
5967;SDS011;3010;51.028;4.170;2022-09-27T09:43:43;15.60;;;6.60;;
5967;SDS011;3010;51.028;4.170;2022-09-27T09:46:13;10.85;;;5.72;;
5967;SDS011;3010;51.028;4.170;2022-09-27T09:51:05;7.93;;;4.93;;
5967;SDS011;3010;51.028;4.170;2022-09-27T09:55:59;8.37;;;5.17;;
5967;SDS011;3010;51.028;4.170;2022-09-27T09:58:34;13.50;;;5.53;;
5967;SDS011;3010;51.028;4.170;2022-09-27T10:01:07;10.67;;;4.70;;
5967;SDS011;3010;51.028;4.170;2022-09-27T10:03:27;7.18;;;3.75;;
5967;SDS011;3010;51.028;4.170;2022-09-27T10:05:56;10.67;;;4.70;;
5967;SDS011;3010;51.028;4.170;2022-09-27T10:08:23;9.33;;;4.33;;
5967;SDS011;3010;51.028;4.170;2022-09-27T10:10:49;5.45;;;3.87;;
5967;SDS011;3010;51.028;4.170;2022-09-27T10:13:17;8.85;;;3.80;;
5967;SDS011;3010;51.028;4.170;2022-09-27T10:15:43;8.00;;;4.20;;
5967;SDS011;3010;51.028;4.170;2022-09-27T10:18:11;4.43;;;3.43;;
5967;SDS011;3010;51.028;4.170;2022-09-27T10:20:38;7.00;;;3.67;;
5967;SDS011;3010;51.028;4.170;2022-09-27T10:23:27;8.47;;;4.03;;
5967;SDS011;3010;51.028;4.170;2022-09-27T10:25:56;9.27;;;3.93;;
5967;SDS011;3010;51.028;4.170;2022-09-27T10:28:38;8.73;;;3.87;;
5967;SDS011;3010;51.028;4.170;2022-09-27T10:31:08;7.53;;;3.73;;
5967;SDS011;3010;51.028;4.170;2022-09-27T10:33:34;7.67;;;4.37;;
5967;SDS011;3010;51.028;4.170;2022-09-27T10:36:00;5.50;;;3.87;;
5967;SDS011;3010;51.028;4.170;2022-09-27T10:38:28;7.17;;;4.20;;
5967;SDS011;3010;51.028;4.170;2022-09-27T10:40:57;9.73;;;4.30;;
5967;SDS011;3010;51.028;4.170;2022-09-27T10:43:32;4.10;;;3.73;;
5967;SDS011;3010;51.028;4.170;2022-09-27T10:48:30;2.70;;;2.50;;
5967;SDS011;3010;51.028;4.170;2022-09-27T10:51:04;4.00;;;2.00;;
5967;SDS011;3010;51.028;4.170;2022-09-27T10:53:26;2.97;;;2.03;;
5967;SDS011;3010;51.028;4.170;2022-09-27T10:55:53;3.90;;;2.20;;
5967;SDS011;3010;51.028;4.170;2022-09-27T10:58:24;1.80;;;1.70;;
5967;SDS011;3010;51.028;4.170;2022-09-27T11:00:58;3.47;;;2.03;;
5967;SDS011;3010;51.028;4.170;2022-09-27T11:03:24;2.47;;;1.60;;
5967;SDS011;3010;51.028;4.170;2022-09-27T11:05:50;6.13;;;1.97;;
5967;SDS011;3010;51.028;4.170;2022-09-27T11:10:44;2.73;;;2.00;;
5967;SDS011;3010;51.028;4.170;2022-09-27T11:13:14;4.30;;;2.00;;
5967;SDS011;3010;51.028;4.170;2022-09-27T11:24:22;2.27;;;1.90;;
5967;SDS011;3010;51.028;4.170;2022-09-27T11:29:56;4.73;;;1.80;;
5967;SDS011;3010;51.028;4.170;2022-09-27T11:43:53;2.33;;;1.93;;
5967;SDS011;3010;51.028;4.170;2022-09-27T11:48:49;3.30;;;2.10;;
5967;SDS011;3010;51.028;4.170;2022-09-27T11:54:04;2.23;;;2.03;;
5967;SDS011;3010;51.028;4.170;2022-09-27T12:01:53;1.63;;;1.40;;
5967;SDS011;3010;51.028;4.170;2022-09-27T12:09:42;3.28;;;1.50;;
5967;SDS011;3010;51.028;4.170;2022-09-27T12:12:14;1.80;;;1.67;;
5967;SDS011;3010;51.028;4.170;2022-09-27T12:14:52;1.58;;;1.55;;
5967;SDS011;3010;51.028;4.170;2022-09-27T12:17:19;1.63;;;1.53;;
5967;SDS011;3010;51.028;4.170;2022-09-27T12:19:45;1.80;;;1.70;;
5967;SDS011;3010;51.028;4.170;2022-09-27T12:22:11;2.73;;;1.70;;
5967;SDS011;3010;51.028;4.170;2022-09-27T12:24:37;2.30;;;1.87;;
5967;SDS011;3010;51.028;4.170;2022-09-27T12:27:22;1.63;;;1.53;;
5967;SDS011;3010;51.028;4.170;2022-09-27T12:30:01;2.23;;;1.43;;
5967;SDS011;3010;51.028;4.170;2022-09-27T12:32:48;2.70;;;1.60;;
5967;SDS011;3010;51.028;4.170;2022-09-27T12:35:09;1.97;;;1.83;;
5967;SDS011;3010;51.028;4.170;2022-09-27T12:37:36;2.23;;;1.90;;
5967;SDS011;3010;51.028;4.170;2022-09-27T12:40:05;2.73;;;2.17;;
5967;SDS011;3010;51.028;4.170;2022-09-27T12:45:12;4.30;;;2.30;;
5967;SDS011;3010;51.028;4.170;2022-09-27T12:47:55;3.53;;;2.03;;
5967;SDS011;3010;51.028;4.170;2022-09-27T12:50:33;2.10;;;1.90;;
5967;SDS011;3010;51.028;4.170;2022-09-27T12:53:07;2.00;;;1.90;;
5967;SDS011;3010;51.028;4.170;2022-09-27T12:58:19;3.57;;;2.53;;
5967;SDS011;3010;51.028;4.170;2022-09-27T13:01:14;5.17;;;2.13;;
5967;SDS011;3010;51.028;4.170;2022-09-27T13:11:29;10.47;;;2.33;;
5967;SDS011;3010;51.028;4.170;2022-09-27T13:13:58;3.58;;;2.47;;
5967;SDS011;3010;51.028;4.170;2022-09-27T13:16:24;5.40;;;3.50;;
5967;SDS011;3010;51.028;4.170;2022-09-27T13:18:52;6.33;;;2.57;;
5967;SDS011;3010;51.028;4.170;2022-09-27T13:24:38;3.63;;;1.47;;
5967;SDS011;3010;51.028;4.170;2022-09-27T13:26:54;1.80;;;1.40;;
5967;SDS011;3010;51.028;4.170;2022-09-27T13:29:22;4.83;;;2.63;;
5967;SDS011;3010;51.028;4.170;2022-09-27T13:34:38;5.30;;;2.22;;
5967;SDS011;3010;51.028;4.170;2022-09-27T13:43:00;4.10;;;1.90;;
5967;SDS011;3010;51.028;4.170;2022-09-27T13:45:22;3.80;;;1.80;;
5967;SDS011;3010;51.028;4.170;2022-09-27T13:47:48;4.87;;;2.23;;
5967;SDS011;3010;51.028;4.170;2022-09-27T13:50:28;5.37;;;2.10;;
5967;SDS011;3010;51.028;4.170;2022-09-27T13:52:57;7.80;;;2.20;;
5967;SDS011;3010;51.028;4.170;2022-09-27T13:55:42;4.70;;;1.97;;
5967;SDS011;3010;51.028;4.170;2022-09-27T14:00:55;14.53;;;2.13;;
5967;SDS011;3010;51.028;4.170;2022-09-27T14:03:23;3.63;;;1.60;;
5967;SDS011;3010;51.028;4.170;2022-09-27T14:05:57;2.50;;;1.50;;
5967;SDS011;3010;51.028;4.170;2022-09-27T14:08:24;3.90;;;1.50;;
5967;SDS011;3010;51.028;4.170;2022-09-27T14:10:49;1.47;;;1.37;;
5967;SDS011;3010;51.028;4.170;2022-09-27T14:13:17;3.53;;;1.43;;
5967;SDS011;3010;51.028;4.170;2022-09-27T14:15:42;3.43;;;1.33;;
5967;SDS011;3010;51.028;4.170;2022-09-27T14:18:09;1.07;;;1.07;;
5967;SDS011;3010;51.028;4.170;2022-09-27T14:20:36;1.30;;;1.20;;
5967;SDS011;3010;51.028;4.170;2022-09-27T14:23:12;1.43;;;1.20;;
5967;SDS011;3010;51.028;4.170;2022-09-27T14:25:38;2.77;;;1.63;;
5967;SDS011;3010;51.028;4.170;2022-09-27T14:28:16;3.00;;;1.70;;
5967;SDS011;3010;51.028;4.170;2022-09-27T14:30:30;3.13;;;1.70;;
5967;SDS011;3010;51.028;4.170;2022-09-27T14:32:57;1.63;;;1.57;;
5967;SDS011;3010;51.028;4.170;2022-09-27T14:35:25;2.17;;;1.83;;
5967;SDS011;3010;51.028;4.170;2022-09-27T14:38:13;2.80;;;2.20;;
5967;SDS011;3010;51.028;4.170;2022-09-27T14:40:39;5.23;;;2.70;;
5967;SDS011;3010;51.028;4.170;2022-09-27T14:43:09;4.03;;;2.40;;
5967;SDS011;3010;51.028;4.170;2022-09-27T14:48:21;2.60;;;2.20;;
5967;SDS011;3010;51.028;4.170;2022-09-27T14:50:55;3.37;;;2.03;;
5967;SDS011;3010;51.028;4.170;2022-09-27T14:53:23;2.77;;;2.57;;
5967;SDS011;3010;51.028;4.170;2022-09-27T14:55:52;5.57;;;2.67;;
5967;SDS011;3010;51.028;4.170;2022-09-27T14:58:21;5.63;;;2.70;;
5967;SDS011;3010;51.028;4.170;2022-09-27T15:00:48;3.50;;;2.97;;
5967;SDS011;3010;51.028;4.170;2022-09-27T15:03:28;3.37;;;3.10;;
5967;SDS011;3010;51.028;4.170;2022-09-27T15:05:56;3.87;;;3.47;;
5967;SDS011;3010;51.028;4.170;2022-09-27T15:08:26;3.77;;;3.47;;
5967;SDS011;3010;51.028;4.170;2022-09-27T15:10:52;3.87;;;2.80;;
5967;SDS011;3010;51.028;4.170;2022-09-27T15:13:19;5.47;;;2.27;;
5967;SDS011;3010;51.028;4.170;2022-09-27T15:15:45;4.07;;;2.80;;
5967;SDS011;3010;51.028;4.170;2022-09-27T15:20:57;4.10;;;2.10;;
5967;SDS011;3010;51.028;4.170;2022-09-27T15:23:33;1.57;;;1.57;;
5967;SDS011;3010;51.028;4.170;2022-09-27T15:25:59;1.70;;;1.60;;
5967;SDS011;3010;51.028;4.170;2022-09-27T15:28:22;1.40;;;1.40;;
5967;SDS011;3010;51.028;4.170;2022-09-27T15:30:52;1.67;;;1.57;;
5967;SDS011;3010;51.028;4.170;2022-09-27T15:33:25;1.50;;;1.50;;
5967;SDS011;3010;51.028;4.170;2022-09-27T15:36:00;1.63;;;1.50;;
5967;SDS011;3010;51.028;4.170;2022-09-27T15:38:30;1.87;;;1.77;;
5967;SDS011;3010;51.028;4.170;2022-09-27T15:40:56;1.90;;;1.70;;
5967;SDS011;3010;51.028;4.170;2022-09-27T15:43:26;2.40;;;1.77;;
5967;SDS011;3010;51.028;4.170;2022-09-27T15:45:56;3.53;;;1.80;;
5967;SDS011;3010;51.028;4.170;2022-09-27T15:48:21;4.47;;;1.63;;
5967;SDS011;3010;51.028;4.170;2022-09-27T15:50:48;1.93;;;1.90;;
5967;SDS011;3010;51.028;4.170;2022-09-27T15:56:03;3.43;;;1.80;;
5967;SDS011;3010;51.028;4.170;2022-09-27T15:58:26;2.20;;;1.80;;
5967;SDS011;3010;51.028;4.170;2022-09-27T16:00:58;2.23;;;2.10;;
5967;SDS011;3010;51.028;4.170;2022-09-27T16:03:25;2.67;;;2.47;;
5967;SDS011;3010;51.028;4.170;2022-09-27T16:05:51;2.27;;;2.17;;
5967;SDS011;3010;51.028;4.170;2022-09-27T16:08:18;4.17;;;2.40;;
5967;SDS011;3010;51.028;4.170;2022-09-27T16:10:45;5.77;;;2.57;;
5967;SDS011;3010;51.028;4.170;2022-09-27T16:13:11;3.10;;;2.50;;
5967;SDS011;3010;51.028;4.170;2022-09-27T16:15:37;3.17;;;2.93;;
5967;SDS011;3010;51.028;4.170;2022-09-27T16:18:04;5.20;;;3.17;;
5967;SDS011;3010;51.028;4.170;2022-09-27T16:20:31;3.33;;;3.10;;
5967;SDS011;3010;51.028;4.170;2022-09-27T16:22:57;3.53;;;3.23;;
5967;SDS011;3010;51.028;4.170;2022-09-27T16:25:24;9.23;;;4.90;;
5967;SDS011;3010;51.028;4.170;2022-09-27T16:27:50;5.53;;;3.93;;
5967;SDS011;3010;51.028;4.170;2022-09-27T16:30:17;5.90;;;4.03;;
5967;SDS011;3010;51.028;4.170;2022-09-27T16:32:44;5.23;;;3.53;;
5967;SDS011;3010;51.028;4.170;2022-09-27T16:35:11;5.00;;;3.47;;
5967;SDS011;3010;51.028;4.170;2022-09-27T16:37:37;3.93;;;3.40;;
5967;SDS011;3010;51.028;4.170;2022-09-27T16:40:04;4.50;;;3.60;;
5967;SDS011;3010;51.028;4.170;2022-09-27T16:42:31;7.00;;;4.03;;
5967;SDS011;3010;51.028;4.170;2022-09-27T16:44:58;7.27;;;4.53;;
5967;SDS011;3010;51.028;4.170;2022-09-27T16:47:24;10.70;;;5.37;;
5967;SDS011;3010;51.028;4.170;2022-09-27T16:49:51;5.00;;;4.60;;
5967;SDS011;3010;51.028;4.170;2022-09-27T16:52:36;7.43;;;4.33;;
5967;SDS011;3010;51.028;4.170;2022-09-27T16:55:03;3.90;;;3.53;;
5967;SDS011;3010;51.028;4.170;2022-09-27T16:57:29;5.07;;;4.00;;
5967;SDS011;3010;51.028;4.170;2022-09-27T16:59:56;6.33;;;4.30;;
5967;SDS011;3010;51.028;4.170;2022-09-27T17:02:23;6.27;;;4.30;;
5967;SDS011;3010;51.028;4.170;2022-09-27T17:04:49;8.20;;;4.77;;
5967;SDS011;3010;51.028;4.170;2022-09-27T17:07:16;10.67;;;4.43;;
5967;SDS011;3010;51.028;4.170;2022-09-27T17:09:42;5.47;;;4.53;;
5967;SDS011;3010;51.028;4.170;2022-09-27T17:12:09;16.00;;;5.73;;
5967;SDS011;3010;51.028;4.170;2022-09-27T17:14:35;7.62;;;5.70;;
5967;SDS011;3010;51.028;4.170;2022-09-27T17:17:02;8.90;;;5.00;;
5967;SDS011;3010;51.028;4.170;2022-09-27T17:19:30;9.83;;;4.83;;
5967;SDS011;3010;51.028;4.170;2022-09-27T17:21:56;6.90;;;4.43;;
5967;SDS011;3010;51.028;4.170;2022-09-27T17:24:23;5.90;;;4.23;;
5967;SDS011;3010;51.028;4.170;2022-09-27T17:26:51;5.73;;;3.83;;